sensor_id;sensor_type;location;lat;lon;timestamp;pressure;altitude;pressure_sealevel;temperature;humidity
61039;BME280;46919;45.816;3.104;2023-07-24T00:00:20;97243.94;;;23.78;65.25
61039;BME280;46919;45.816;3.104;2023-07-24T00:02:46;97238.09;;;23.70;65.08
61039;BME280;46919;45.816;3.104;2023-07-24T00:05:11;97260.97;;;23.71;65.14
61039;BME280;46919;45.816;3.104;2023-07-24T00:07:37;97298.81;;;23.88;64.94
61039;BME280;46919;45.816;3.104;2023-07-24T00:10:03;97287.25;;;23.95;63.58
61039;BME280;46919;45.816;3.104;2023-07-24T00:12:28;97266.16;;;23.90;64.65
61039;BME280;46919;45.816;3.104;2023-07-24T00:14:54;97253.34;;;23.77;67.57
61039;BME280;46919;45.816;3.104;2023-07-24T00:17:19;97229.66;;;23.58;70.98
61039;BME280;46919;45.816;3.104;2023-07-24T00:19:44;97192.38;;;23.34;73.85
61039;BME280;46919;45.816;3.104;2023-07-24T00:22:10;97164.69;;;23.22;76.14
61039;BME280;46919;45.816;3.104;2023-07-24T00:24:35;97134.50;;;23.17;78.61
61039;BME280;46919;45.816;3.104;2023-07-24T00:27:01;97128.34;;;23.20;78.95
61039;BME280;46919;45.816;3.104;2023-07-24T00:29:26;97143.09;;;23.15;79.14
61039;BME280;46919;45.816;3.104;2023-07-24T00:31:52;97148.25;;;23.00;78.85
61039;BME280;46919;45.816;3.104;2023-07-24T00:34:17;97148.09;;;22.78;80.33
61039;BME280;46919;45.816;3.104;2023-07-24T00:36:43;97133.31;;;22.48;83.05
61039;BME280;46919;45.816;3.104;2023-07-24T00:39:08;97132.16;;;22.32;84.24
61039;BME280;46919;45.816;3.104;2023-07-24T00:41:33;97123.53;;;22.24;82.47
61039;BME280;46919;45.816;3.104;2023-07-24T00:43:59;97125.28;;;22.20;81.75
61039;BME280;46919;45.816;3.104;2023-07-24T00:46:24;97122.69;;;22.15;81.15
61039;BME280;46919;45.816;3.104;2023-07-24T00:48:51;97121.81;;;21.97;80.63
61039;BME280;46919;45.816;3.104;2023-07-24T00:51:17;97122.41;;;21.85;82.12
61039;BME280;46919;45.816;3.104;2023-07-24T00:53:42;97107.91;;;21.94;80.39
61039;BME280;46919;45.816;3.104;2023-07-24T00:56:08;97118.44;;;22.00;80.92
61039;BME280;46919;45.816;3.104;2023-07-24T00:58:37;97111.97;;;22.05;81.20
61039;BME280;46919;45.816;3.104;2023-07-24T01:01:03;97104.63;;;21.92;82.39
61039;BME280;46919;45.816;3.104;2023-07-24T01:03:33;97110.34;;;21.95;82.76
61039;BME280;46919;45.816;3.104;2023-07-24T01:06:01;97085.25;;;22.05;81.97
61039;BME280;46919;45.816;3.104;2023-07-24T01:08:27;97076.50;;;21.95;82.89
61039;BME280;46919;45.816;3.104;2023-07-24T01:10:53;97078.59;;;21.89;83.95
61039;BME280;46919;45.816;3.104;2023-07-24T01:13:22;97071.63;;;21.92;84.52
61039;BME280;46919;45.816;3.104;2023-07-24T01:15:58;97080.56;;;22.06;84.07
61039;BME280;46919;45.816;3.104;2023-07-24T01:18:27;97081.81;;;21.91;84.56
61039;BME280;46919;45.816;3.104;2023-07-24T01:20:56;97097.66;;;21.85;84.90
61039;BME280;46919;45.816;3.104;2023-07-24T01:26:09;97096.38;;;21.92;84.87
61039;BME280;46919;45.816;3.104;2023-07-24T01:28:35;97093.81;;;21.95;83.72
61039;BME280;46919;45.816;3.104;2023-07-24T01:31:00;97101.63;;;22.11;83.19
61039;BME280;46919;45.816;3.104;2023-07-24T01:33:26;97102.56;;;22.06;83.65
61039;BME280;46919;45.816;3.104;2023-07-24T01:36:02;97113.59;;;22.06;83.83
61039;BME280;46919;45.816;3.104;2023-07-24T01:38:31;97123.03;;;22.22;83.49
61039;BME280;46919;45.816;3.104;2023-07-24T01:40:56;97138.06;;;22.16;83.63
61039;BME280;46919;45.816;3.104;2023-07-24T01:43:22;97154.59;;;22.16;83.29
61039;BME280;46919;45.816;3.104;2023-07-24T01:45:48;97145.22;;;22.17;82.87
61039;BME280;46919;45.816;3.104;2023-07-24T01:48:13;97140.63;;;22.04;83.42
61039;BME280;46919;45.816;3.104;2023-07-24T01:50:39;97127.16;;;22.02;83.05
61039;BME280;46919;45.816;3.104;2023-07-24T01:53:04;97119.56;;;21.99;83.02
61039;BME280;46919;45.816;3.104;2023-07-24T01:55:29;97129.28;;;21.97;83.49
61039;BME280;46919;45.816;3.104;2023-07-24T01:57:55;97142.25;;;22.05;83.65
61039;BME280;46919;45.816;3.104;2023-07-24T02:00:20;97140.50;;;22.18;83.36
61039;BME280;46919;45.816;3.104;2023-07-24T02:02:45;97096.94;;;22.11;83.05
61039;BME280;46919;45.816;3.104;2023-07-24T02:05:11;97080.88;;;21.96;84.85
61039;BME280;46919;45.816;3.104;2023-07-24T02:07:36;97075.78;;;21.80;87.69
61039;BME280;46919;45.816;3.104;2023-07-24T02:10:02;97054.22;;;21.65;90.71
61039;BME280;46919;45.816;3.104;2023-07-24T02:12:27;97052.75;;;21.59;92.28
61039;BME280;46919;45.816;3.104;2023-07-24T02:14:53;97065.25;;;21.42;93.67
61039;BME280;46919;45.816;3.104;2023-07-24T02:17:19;97074.63;;;21.41;94.98
61039;BME280;46919;45.816;3.104;2023-07-24T02:19:45;97094.13;;;21.53;93.53
61039;BME280;46919;45.816;3.104;2023-07-24T02:22:11;97085.94;;;21.40;94.28
61039;BME280;46919;45.816;3.104;2023-07-24T02:24:36;97067.34;;;21.37;94.32
61039;BME280;46919;45.816;3.104;2023-07-24T02:27:02;97079.44;;;21.35;94.83
61039;BME280;46919;45.816;3.104;2023-07-24T02:29:27;97084.25;;;21.30;95.99
61039;BME280;46919;45.816;3.104;2023-07-24T02:31:53;97091.69;;;21.29;97.18
61039;BME280;46919;45.816;3.104;2023-07-24T02:34:19;97095.63;;;21.37;97.74
61039;BME280;46919;45.816;3.104;2023-07-24T02:36:49;97102.38;;;21.31;97.23
61039;BME280;46919;45.816;3.104;2023-07-24T02:39:15;97101.50;;;21.22;97.10
61039;BME280;46919;45.816;3.104;2023-07-24T02:41:40;97112.31;;;21.18;97.39
61039;BME280;46919;45.816;3.104;2023-07-24T02:44:05;97104.31;;;21.08;97.89
61039;BME280;46919;45.816;3.104;2023-07-24T02:46:31;97097.34;;;21.02;98.61
61039;BME280;46919;45.816;3.104;2023-07-24T02:48:56;97095.91;;;21.04;98.87
61039;BME280;46919;45.816;3.104;2023-07-24T02:51:22;97108.50;;;21.28;97.89
61039;BME280;46919;45.816;3.104;2023-07-24T02:53:47;97099.13;;;21.29;97.50
61039;BME280;46919;45.816;3.104;2023-07-24T02:56:12;97103.28;;;21.17;98.86
61039;BME280;46919;45.816;3.104;2023-07-24T02:58:38;97090.91;;;21.06;98.91
61039;BME280;46919;45.816;3.104;2023-07-24T03:01:07;97097.03;;;21.03;99.30
61039;BME280;46919;45.816;3.104;2023-07-24T03:03:33;97099.22;;;21.15;99.31
61039;BME280;46919;45.816;3.104;2023-07-24T03:05:59;97094.41;;;21.21;98.59
61039;BME280;46919;45.816;3.104;2023-07-24T03:08:24;97092.91;;;21.14;98.52
61039;BME280;46919;45.816;3.104;2023-07-24T03:10:50;97090.66;;;21.16;98.78
61039;BME280;46919;45.816;3.104;2023-07-24T03:13:15;97092.91;;;21.14;100.00
61039;BME280;46919;45.816;3.104;2023-07-24T03:15:40;97095.13;;;21.12;100.00
61039;BME280;46919;45.816;3.104;2023-07-24T03:18:06;97103.06;;;21.14;99.38
61039;BME280;46919;45.816;3.104;2023-07-24T03:20:31;97093.97;;;21.05;99.60
61039;BME280;46919;45.816;3.104;2023-07-24T03:22:57;97089.28;;;21.05;98.84
61039;BME280;46919;45.816;3.104;2023-07-24T03:25:22;97079.84;;;20.97;99.52
61039;BME280;46919;45.816;3.104;2023-07-24T03:27:47;97089.16;;;20.88;100.00
61039;BME280;46919;45.816;3.104;2023-07-24T03:30:13;97082.47;;;20.80;100.00
61039;BME280;46919;45.816;3.104;2023-07-24T03:32:39;97074.16;;;20.71;100.00
61039;BME280;46919;45.816;3.104;2023-07-24T03:35:07;97078.22;;;20.74;100.00
61039;BME280;46919;45.816;3.104;2023-07-24T03:37:34;97067.06;;;20.93;99.05
61039;BME280;46919;45.816;3.104;2023-07-24T03:40:00;97064.31;;;20.93;98.95
61039;BME280;46919;45.816;3.104;2023-07-24T03:42:27;97061.44;;;20.75;98.35
61039;BME280;46919;45.816;3.104;2023-07-24T03:44:53;97063.81;;;20.68;98.97
61039;BME280;46919;45.816;3.104;2023-07-24T03:47:19;97067.19;;;20.65;99.65
61039;BME280;46919;45.816;3.104;2023-07-24T03:49:44;97060.34;;;20.62;100.00
61039;BME280;46919;45.816;3.104;2023-07-24T03:52:09;97065.75;;;20.68;100.00
61039;BME280;46919;45.816;3.104;2023-07-24T03:54:35;97069.31;;;20.68;100.00
61039;BME280;46919;45.816;3.104;2023-07-24T03:57:00;97065.31;;;20.74;100.00
61039;BME280;46919;45.816;3.104;2023-07-24T03:59:25;97064.69;;;20.77;99.67
61039;BME280;46919;45.816;3.104;2023-07-24T04:01:51;97051.53;;;20.66;100.00
61039;BME280;46919;45.816;3.104;2023-07-24T04:04:16;97048.16;;;20.55;100.00
61039;BME280;46919;45.816;3.104;2023-07-24T04:06:41;97051.22;;;20.53;100.00
61039;BME280;46919;45.816;3.104;2023-07-24T04:09:07;97077.22;;;20.70;100.00
61039;BME280;46919;45.816;3.104;2023-07-24T04:11:32;97087.03;;;20.85;100.00
61039;BME280;46919;45.816;3.104;2023-07-24T04:13:58;97100.38;;;20.77;99.96
61039;BME280;46919;45.816;3.104;2023-07-24T04:16:23;97097.66;;;20.63;100.00
61039;BME280;46919;45.816;3.104;2023-07-24T04:18:48;97106.25;;;20.48;100.00
61039;BME280;46919;45.816;3.104;2023-07-24T04:21:14;97101.97;;;20.42;100.00
61039;BME280;46919;45.816;3.104;2023-07-24T04:23:39;97091.50;;;20.44;100.00
61039;BME280;46919;45.816;3.104;2023-07-24T04:26:04;97084.78;;;20.50;100.00
61039;BME280;46919;45.816;3.104;2023-07-24T04:28:30;97094.84;;;20.55;100.00
61039;BME280;46919;45.816;3.104;2023-07-24T04:30:55;97091.91;;;20.65;100.00
61039;BME280;46919;45.816;3.104;2023-07-24T04:33:20;97086.16;;;20.75;99.99
61039;BME280;46919;45.816;3.104;2023-07-24T04:35:49;97074.38;;;20.75;99.44
61039;BME280;46919;45.816;3.104;2023-07-24T04:38:14;97081.78;;;20.74;98.76
61039;BME280;46919;45.816;3.104;2023-07-24T04:40:43;97089.38;;;20.77;96.35
61039;BME280;46919;45.816;3.104;2023-07-24T04:43:09;97087.41;;;20.69;95.77
61039;BME280;46919;45.816;3.104;2023-07-24T04:45:34;97079.28;;;20.64;96.04
61039;BME280;46919;45.816;3.104;2023-07-24T04:48:00;97069.31;;;20.68;98.97
61039;BME280;46919;45.816;3.104;2023-07-24T04:50:25;97073.06;;;20.58;100.00
61039;BME280;46919;45.816;3.104;2023-07-24T04:52:50;97080.63;;;20.53;100.00
61039;BME280;46919;45.816;3.104;2023-07-24T04:55:16;97077.34;;;20.51;100.00
61039;BME280;46919;45.816;3.104;2023-07-24T04:57:41;97073.00;;;20.50;100.00
61039;BME280;46919;45.816;3.104;2023-07-24T05:00:07;97081.72;;;20.52;100.00
61039;BME280;46919;45.816;3.104;2023-07-24T05:02:32;97084.19;;;20.39;100.00
61039;BME280;46919;45.816;3.104;2023-07-24T05:04:58;97090.81;;;20.38;100.00
61039;BME280;46919;45.816;3.104;2023-07-24T05:07:23;97099.44;;;20.45;100.00
61039;BME280;46919;45.816;3.104;2023-07-24T05:09:48;97099.69;;;20.58;100.00
61039;BME280;46919;45.816;3.104;2023-07-24T05:12:14;97096.97;;;20.58;100.00
61039;BME280;46919;45.816;3.104;2023-07-24T05:14:39;97089.94;;;20.66;100.00
61039;BME280;46919;45.816;3.104;2023-07-24T05:17:05;97092.44;;;20.76;100.00
61039;BME280;46919;45.816;3.104;2023-07-24T05:19:30;97099.44;;;20.82;100.00
61039;BME280;46919;45.816;3.104;2023-07-24T05:21:55;97098.50;;;20.87;100.00
61039;BME280;46919;45.816;3.104;2023-07-24T05:24:21;97102.59;;;20.89;100.00
61039;BME280;46919;45.816;3.104;2023-07-24T05:26:46;97097.75;;;20.95;100.00
61039;BME280;46919;45.816;3.104;2023-07-24T05:29:11;97102.72;;;21.07;100.00
61039;BME280;46919;45.816;3.104;2023-07-24T05:31:37;97113.53;;;21.03;100.00
61039;BME280;46919;45.816;3.104;2023-07-24T05:34:02;97119.25;;;20.93;100.00
61039;BME280;46919;45.816;3.104;2023-07-24T05:36:29;97113.38;;;20.86;100.00
61039;BME280;46919;45.816;3.104;2023-07-24T05:38:54;97118.31;;;20.75;100.00
61039;BME280;46919;45.816;3.104;2023-07-24T05:41:19;97115.66;;;20.70;100.00
61039;BME280;46919;45.816;3.104;2023-07-24T05:43:45;97129.47;;;20.78;100.00
61039;BME280;46919;45.816;3.104;2023-07-24T05:46:10;97120.00;;;20.85;100.00
61039;BME280;46919;45.816;3.104;2023-07-24T05:48:35;97101.00;;;20.74;100.00
61039;BME280;46919;45.816;3.104;2023-07-24T05:51:01;97117.72;;;20.64;100.00
61039;BME280;46919;45.816;3.104;2023-07-24T05:53:26;97120.53;;;20.73;100.00
61039;BME280;46919;45.816;3.104;2023-07-24T05:56:02;97120.13;;;21.02;100.00
61039;BME280;46919;45.816;3.104;2023-07-24T05:58:28;97127.94;;;21.09;100.00
61039;BME280;46919;45.816;3.104;2023-07-24T06:00:53;97126.28;;;21.08;100.00
61039;BME280;46919;45.816;3.104;2023-07-24T06:03:20;97118.88;;;21.08;100.00
61039;BME280;46919;45.816;3.104;2023-07-24T06:05:46;97121.63;;;21.08;100.00
61039;BME280;46919;45.816;3.104;2023-07-24T06:08:11;97121.69;;;20.94;100.00
61039;BME280;46919;45.816;3.104;2023-07-24T06:10:37;97116.19;;;20.94;100.00
61039;BME280;46919;45.816;3.104;2023-07-24T06:13:02;97128.72;;;20.87;100.00
61039;BME280;46919;45.816;3.104;2023-07-24T06:15:28;97140.84;;;20.86;100.00
61039;BME280;46919;45.816;3.104;2023-07-24T06:17:53;97133.84;;;20.79;100.00
61039;BME280;46919;45.816;3.104;2023-07-24T06:20:19;97127.03;;;20.77;100.00
61039;BME280;46919;45.816;3.104;2023-07-24T06:22:44;97122.59;;;20.67;100.00
61039;BME280;46919;45.816;3.104;2023-07-24T06:25:09;97119.09;;;20.75;100.00
61039;BME280;46919;45.816;3.104;2023-07-24T06:27:35;97116.84;;;20.77;100.00
61039;BME280;46919;45.816;3.104;2023-07-24T06:30:00;97112.41;;;20.68;100.00
61039;BME280;46919;45.816;3.104;2023-07-24T06:32:26;97129.66;;;20.82;100.00
61039;BME280;46919;45.816;3.104;2023-07-24T06:34:51;97121.09;;;20.84;100.00
61039;BME280;46919;45.816;3.104;2023-07-24T06:37:17;97117.63;;;20.92;100.00
61039;BME280;46919;45.816;3.104;2023-07-24T06:39:42;97134.72;;;20.89;100.00
61039;BME280;46919;45.816;3.104;2023-07-24T06:42:08;97135.09;;;20.96;99.90
61039;BME280;46919;45.816;3.104;2023-07-24T06:44:34;97143.16;;;20.92;99.96
61039;BME280;46919;45.816;3.104;2023-07-24T06:46:59;97147.28;;;20.81;100.00
61039;BME280;46919;45.816;3.104;2023-07-24T06:49:24;97150.63;;;20.78;100.00
61039;BME280;46919;45.816;3.104;2023-07-24T06:51:50;97156.31;;;20.81;100.00
61039;BME280;46919;45.816;3.104;2023-07-24T06:54:15;97159.56;;;20.84;100.00
61039;BME280;46919;45.816;3.104;2023-07-24T06:56:41;97156.69;;;20.89;100.00
61039;BME280;46919;45.816;3.104;2023-07-24T06:59:06;97150.34;;;21.02;100.00
61039;BME280;46919;45.816;3.104;2023-07-24T07:01:31;97150.31;;;21.16;99.96
61039;BME280;46919;45.816;3.104;2023-07-24T07:03:57;97158.84;;;21.14;99.49
61039;BME280;46919;45.816;3.104;2023-07-24T07:06:22;97159.22;;;21.22;99.57
61039;BME280;46919;45.816;3.104;2023-07-24T07:08:47;97171.84;;;21.23;98.65
61039;BME280;46919;45.816;3.104;2023-07-24T07:11:13;97171.41;;;21.29;98.42
61039;BME280;46919;45.816;3.104;2023-07-24T07:13:38;97170.59;;;21.29;98.94
61039;BME280;46919;45.816;3.104;2023-07-24T07:16:04;97163.50;;;21.14;100.00
61039;BME280;46919;45.816;3.104;2023-07-24T07:18:29;97160.28;;;21.12;100.00
61039;BME280;46919;45.816;3.104;2023-07-24T07:20:55;97156.41;;;21.13;100.00
61039;BME280;46919;45.816;3.104;2023-07-24T07:23:21;97153.66;;;21.35;100.00
61039;BME280;46919;45.816;3.104;2023-07-24T07:25:46;97151.16;;;21.48;100.00
61039;BME280;46919;45.816;3.104;2023-07-24T07:28:13;97152.09;;;21.66;100.00
61039;BME280;46919;45.816;3.104;2023-07-24T07:30:39;97141.81;;;21.80;99.92
61039;BME280;46919;45.816;3.104;2023-07-24T07:33:05;97147.69;;;21.87;97.37
61039;BME280;46919;45.816;3.104;2023-07-24T07:35:32;97158.16;;;21.85;97.28
61039;BME280;46919;45.816;3.104;2023-07-24T07:37:57;97157.50;;;21.80;97.20
61039;BME280;46919;45.816;3.104;2023-07-24T07:40:23;97156.03;;;21.82;97.29
61039;BME280;46919;45.816;3.104;2023-07-24T07:42:49;97153.19;;;21.96;97.00
61039;BME280;46919;45.816;3.104;2023-07-24T07:45:14;97146.03;;;22.26;95.98
61039;BME280;46919;45.816;3.104;2023-07-24T07:47:40;97131.88;;;22.51;94.69
61039;BME280;46919;45.816;3.104;2023-07-24T07:50:05;97131.72;;;22.73;89.71
61039;BME280;46919;45.816;3.104;2023-07-24T07:52:31;97137.41;;;22.94;82.09
61039;BME280;46919;45.816;3.104;2023-07-24T07:54:56;97137.91;;;23.14;78.48
61039;BME280;46919;45.816;3.104;2023-07-24T07:57:21;97134.19;;;23.27;72.55
61039;BME280;46919;45.816;3.104;2023-07-24T07:59:47;97136.44;;;23.34;69.91
61039;BME280;46919;45.816;3.104;2023-07-24T08:02:12;97134.16;;;23.45;67.46
61039;BME280;46919;45.816;3.104;2023-07-24T08:04:38;97136.22;;;23.57;68.62
61039;BME280;46919;45.816;3.104;2023-07-24T08:07:03;97137.19;;;23.69;69.52
61039;BME280;46919;45.816;3.104;2023-07-24T08:09:29;97143.97;;;23.81;66.36
61039;BME280;46919;45.816;3.104;2023-07-24T08:11:54;97139.41;;;23.85;65.55
61039;BME280;46919;45.816;3.104;2023-07-24T08:14:20;97135.91;;;24.14;64.25
61039;BME280;46919;45.816;3.104;2023-07-24T08:16:48;97136.84;;;24.18;63.40
61039;BME280;46919;45.816;3.104;2023-07-24T08:19:13;97137.69;;;24.10;62.10
61039;BME280;46919;45.816;3.104;2023-07-24T08:21:39;97135.78;;;24.02;62.85
61039;BME280;46919;45.816;3.104;2023-07-24T08:24:05;97132.31;;;24.14;62.10
61039;BME280;46919;45.816;3.104;2023-07-24T08:26:31;97134.91;;;24.19;62.32
61039;BME280;46919;45.816;3.104;2023-07-24T08:28:56;97139.16;;;24.37;61.36
61039;BME280;46919;45.816;3.104;2023-07-24T08:31:22;97149.63;;;24.32;59.71
61039;BME280;46919;45.816;3.104;2023-07-24T08:33:47;97148.03;;;24.22;61.52
61039;BME280;46919;45.816;3.104;2023-07-24T08:36:12;97143.69;;;24.12;60.76
61039;BME280;46919;45.816;3.104;2023-07-24T08:38:38;97146.03;;;24.01;60.77
61039;BME280;46919;45.816;3.104;2023-07-24T08:41:08;97150.69;;;24.10;61.50
61039;BME280;46919;45.816;3.104;2023-07-24T08:43:35;97156.03;;;24.15;59.77
61039;BME280;46919;45.816;3.104;2023-07-24T08:46:01;97163.19;;;24.16;59.29
61039;BME280;46919;45.816;3.104;2023-07-24T08:48:39;97167.28;;;24.01;59.05
61039;BME280;46919;45.816;3.104;2023-07-24T08:51:06;97177.19;;;24.02;59.38
61039;BME280;46919;45.816;3.104;2023-07-24T08:53:33;97173.16;;;23.82;59.97
61039;BME280;46919;45.816;3.104;2023-07-24T08:56:02;97174.00;;;23.74;60.42
61039;BME280;46919;45.816;3.104;2023-07-24T08:58:28;97173.38;;;23.68;60.95
61039;BME280;46919;45.816;3.104;2023-07-24T09:00:53;97169.78;;;23.76;61.00
61039;BME280;46919;45.816;3.104;2023-07-24T09:03:19;97170.28;;;23.87;60.05
61039;BME280;46919;45.816;3.104;2023-07-24T09:05:45;97169.13;;;23.88;60.48
61039;BME280;46919;45.816;3.104;2023-07-24T09:08:11;97164.56;;;23.92;59.45
61039;BME280;46919;45.816;3.104;2023-07-24T09:10:36;97166.34;;;23.88;58.73
61039;BME280;46919;45.816;3.104;2023-07-24T09:13:02;97177.53;;;23.83;58.88
61039;BME280;46919;45.816;3.104;2023-07-24T09:15:38;97175.03;;;24.08;58.88
61039;BME280;46919;45.816;3.104;2023-07-24T09:18:04;97166.53;;;24.30;58.35
61039;BME280;46919;45.816;3.104;2023-07-24T09:20:38;97171.50;;;24.37;58.70
61039;BME280;46919;45.816;3.104;2023-07-24T09:23:04;97169.00;;;24.53;57.61
61039;BME280;46919;45.816;3.104;2023-07-24T09:25:30;97165.94;;;24.46;57.33
61039;BME280;46919;45.816;3.104;2023-07-24T09:27:58;97166.53;;;24.30;57.76
61039;BME280;46919;45.816;3.104;2023-07-24T09:30:23;97163.47;;;24.53;57.39
61039;BME280;46919;45.816;3.104;2023-07-24T09:32:52;97165.09;;;24.54;57.49
61039;BME280;46919;45.816;3.104;2023-07-24T09:35:19;97158.53;;;24.67;56.19
61039;BME280;46919;45.816;3.104;2023-07-24T09:37:45;97169.72;;;24.71;56.35
61039;BME280;46919;45.816;3.104;2023-07-24T09:40:13;97176.31;;;24.19;56.02
61039;BME280;46919;45.816;3.104;2023-07-24T09:42:39;97183.63;;;24.15;56.25
61039;BME280;46919;45.816;3.104;2023-07-24T09:45:08;97199.72;;;24.13;56.97
61039;BME280;46919;45.816;3.104;2023-07-24T09:47:34;97200.84;;;24.12;57.23
61039;BME280;46919;45.816;3.104;2023-07-24T09:50:03;97201.31;;;24.14;57.05
61039;BME280;46919;45.816;3.104;2023-07-24T09:52:29;97214.53;;;23.99;56.87
61039;BME280;46919;45.816;3.104;2023-07-24T09:57:25;97206.25;;;23.82;57.67
61039;BME280;46919;45.816;3.104;2023-07-24T09:59:52;97207.94;;;23.65;58.77
61039;BME280;46919;45.816;3.104;2023-07-24T10:02:19;97203.53;;;23.64;58.81
61039;BME280;46919;45.816;3.104;2023-07-24T10:04:44;97209.56;;;23.66;59.29
61039;BME280;46919;45.816;3.104;2023-07-24T10:07:10;97211.66;;;23.87;59.24
61039;BME280;46919;45.816;3.104;2023-07-24T10:09:36;97205.47;;;23.73;59.52
61039;BME280;46919;45.816;3.104;2023-07-24T10:12:05;97211.66;;;23.61;59.65
61039;BME280;46919;45.816;3.104;2023-07-24T10:14:30;97211.84;;;23.47;60.57
61039;BME280;46919;45.816;3.104;2023-07-24T10:16:56;97202.44;;;23.48;60.64
61039;BME280;46919;45.816;3.104;2023-07-24T10:19:22;97216.22;;;23.48;60.81
61039;BME280;46919;45.816;3.104;2023-07-24T10:21:48;97212.97;;;23.55;60.52
61039;BME280;46919;45.816;3.104;2023-07-24T10:24:15;97209.75;;;23.52;60.53
61039;BME280;46919;45.816;3.104;2023-07-24T10:26:41;97210.38;;;23.49;60.64
61039;BME280;46919;45.816;3.104;2023-07-24T10:29:06;97205.03;;;23.53;60.81
61039;BME280;46919;45.816;3.104;2023-07-24T10:31:32;97210.38;;;23.67;60.35
61039;BME280;46919;45.816;3.104;2023-07-24T10:34:07;97215.72;;;23.63;60.60
61039;BME280;46919;45.816;3.104;2023-07-24T10:36:36;97200.16;;;23.59;61.23
61039;BME280;46919;45.816;3.104;2023-07-24T10:39:13;97205.47;;;23.73;61.67
61039;BME280;46919;45.816;3.104;2023-07-24T10:41:39;97198.81;;;23.91;61.72
61039;BME280;46919;45.816;3.104;2023-07-24T10:44:05;97201.38;;;23.96;61.08
61039;BME280;46919;45.816;3.104;2023-07-24T10:46:40;97201.88;;;23.98;61.32
61039;BME280;46919;45.816;3.104;2023-07-24T10:49:08;97200.25;;;24.06;61.63
61039;BME280;46919;45.816;3.104;2023-07-24T10:51:33;97195.34;;;24.12;61.28
61039;BME280;46919;45.816;3.104;2023-07-24T10:54:01;97184.16;;;23.99;59.98
61039;BME280;46919;45.816;3.104;2023-07-24T10:56:27;97188.75;;;23.95;59.85
61039;BME280;46919;45.816;3.104;2023-07-24T10:58:52;97187.06;;;24.12;59.87
61039;BME280;46919;45.816;3.104;2023-07-24T11:01:18;97180.53;;;24.16;59.27
61039;BME280;46919;45.816;3.104;2023-07-24T11:03:44;97178.97;;;24.07;59.35
61039;BME280;46919;45.816;3.104;2023-07-24T11:06:20;97177.25;;;24.23;57.26
61039;BME280;46919;45.816;3.104;2023-07-24T11:08:54;97170.00;;;24.48;58.20
61039;BME280;46919;45.816;3.104;2023-07-24T11:11:21;97155.50;;;24.60;56.15
61039;BME280;46919;45.816;3.104;2023-07-24T11:13:47;97160.63;;;24.70;55.95
61039;BME280;46919;45.816;3.104;2023-07-24T11:16:13;97153.28;;;24.95;55.27
61039;BME280;46919;45.816;3.104;2023-07-24T11:18:47;97145.59;;;25.22;54.66
61039;BME280;46919;45.816;3.104;2023-07-24T11:21:13;97135.47;;;25.05;54.47
61039;BME280;46919;45.816;3.104;2023-07-24T11:23:49;97138.19;;;25.14;52.96
61039;BME280;46919;45.816;3.104;2023-07-24T11:26:15;97148.97;;;25.28;53.97
61039;BME280;46919;45.816;3.104;2023-07-24T11:28:41;97147.72;;;25.59;50.55
61039;BME280;46919;45.816;3.104;2023-07-24T11:31:06;97155.22;;;25.71;51.36
61039;BME280;46919;45.816;3.104;2023-07-24T11:33:32;97142.41;;;25.54;51.77
61039;BME280;46919;45.816;3.104;2023-07-24T11:35:58;97144.16;;;25.37;51.88
61039;BME280;46919;45.816;3.104;2023-07-24T11:38:24;97142.50;;;25.24;52.27
61039;BME280;46919;45.816;3.104;2023-07-24T11:40:50;97139.66;;;25.11;52.52
61039;BME280;46919;45.816;3.104;2023-07-24T11:43:17;97141.22;;;25.00;52.72
61039;BME280;46919;45.816;3.104;2023-07-24T11:45:43;97141.16;;;24.67;52.04
61039;BME280;46919;45.816;3.104;2023-07-24T11:48:10;97142.25;;;24.74;51.66
61039;BME280;46919;45.816;3.104;2023-07-24T11:50:47;97146.13;;;24.73;52.19
61039;BME280;46919;45.816;3.104;2023-07-24T11:55:45;97159.19;;;24.64;55.46
61039;BME280;46919;45.816;3.104;2023-07-24T11:58:14;97155.97;;;24.62;55.41
61039;BME280;46919;45.816;3.104;2023-07-24T12:00:40;97146.88;;;24.83;55.64
61039;BME280;46919;45.816;3.104;2023-07-24T12:03:05;97138.84;;;24.90;55.51
61039;BME280;46919;45.816;3.104;2023-07-24T12:05:43;97135.63;;;24.88;54.61
61039;BME280;46919;45.816;3.104;2023-07-24T12:08:10;97135.16;;;24.56;54.51
61039;BME280;46919;45.816;3.104;2023-07-24T12:10:37;97127.00;;;24.68;54.28
61039;BME280;46919;45.816;3.104;2023-07-24T12:13:03;97122.81;;;24.83;54.12
61039;BME280;46919;45.816;3.104;2023-07-24T12:15:29;97137.38;;;24.92;54.34
61039;BME280;46919;45.816;3.104;2023-07-24T12:17:54;97125.66;;;24.95;54.91
61039;BME280;46919;45.816;3.104;2023-07-24T12:20:22;97128.03;;;25.18;54.88
61039;BME280;46919;45.816;3.104;2023-07-24T12:22:48;97116.50;;;25.37;54.68
61039;BME280;46919;45.816;3.104;2023-07-24T12:25:13;97118.53;;;25.49;52.91
61039;BME280;46919;45.816;3.104;2023-07-24T12:27:39;97102.50;;;25.55;52.33
61039;BME280;46919;45.816;3.104;2023-07-24T12:30:06;97121.41;;;25.53;51.93
61039;BME280;46919;45.816;3.104;2023-07-24T12:32:32;97105.22;;;25.42;51.14
61039;BME280;46919;45.816;3.104;2023-07-24T12:34:57;97101.19;;;25.40;51.25
61039;BME280;46919;45.816;3.104;2023-07-24T12:37:23;97106.81;;;25.31;50.22
61039;BME280;46919;45.816;3.104;2023-07-24T12:39:48;97100.53;;;25.22;49.01
61039;BME280;46919;45.816;3.104;2023-07-24T12:42:14;97102.47;;;25.42;49.23
61039;BME280;46919;45.816;3.104;2023-07-24T12:44:41;97099.84;;;25.46;49.22
61039;BME280;46919;45.816;3.104;2023-07-24T12:47:07;97095.59;;;25.61;49.17
61039;BME280;46919;45.816;3.104;2023-07-24T12:49:33;97099.72;;;25.55;49.23
61039;BME280;46919;45.816;3.104;2023-07-24T12:51:59;97104.34;;;25.63;48.17
61039;BME280;46919;45.816;3.104;2023-07-24T12:54:24;97108.50;;;25.69;48.66
61039;BME280;46919;45.816;3.104;2023-07-24T12:56:50;97103.34;;;25.80;48.49
61039;BME280;46919;45.816;3.104;2023-07-24T12:59:16;97096.34;;;26.19;48.60